Colorado River (Arizona), Lees Ferry (09380000)

StateArizonaLatestUnknown (9770 cfs)
RiverColorado RiverRatingObservedEstimated
Updated2022-09-25 21:00 (1 hour ago)Flood - The river is flooding. Obstacles can be treacherous or deadly. The river should be avoided at this stage for casual trips and definitely for the inexperienced. Trips should be attempted only with protective gear and equipment.Flood(none)(none)
Discharge9770 cfs (median: 9910 cfs)High - The river is high and potentially dangerous, especially for the young and / or inexperienced. Normal stream obstacles are sometimes difficult to navigate. Extended distances can be attempted, but canoe travel may not be advisable.High(none)(none)
Height8.63 feetGood - Conditions are ideal for a canoe or kayak. Boats typically will drag on fewer than one-quarter of riffles, if at all, and portages are unnecessary or rare. Normal float lengths can be attempted without a problem.Good(none)(none)
TrendRising (falling over 24 hours)Low - River is low but can still be floated. Some riffles are okay but most come with significant dragging and might need a portage. Float lengths should be reduced to accommodate low flow, dragging, and portages.Low(none)(none)
USGSExternal icon USGS Site (External icon Duck Duck Go Maps)Poor - River is too low to float comfortably. Most or all riffles will drag or must be portaged and some obstacles (such as slick shelf rock) cause undue problems. Avoid the river at this stage for casual paddling trips.Poor(none)(none)

Trending Data

Plot Image

Trips for Colorado River (Arizona), Lees Ferry (09380000)

DateStartEndDistanceConditionDischargeHeightFishingDetails

A total of 0 rows are displayed.

Condition Descriptions

Fishing Conditions

Fish Species

Notes

Classic Trip List

The classic River Trips application is still available for use. It is updated with the new system using a data retrofit. It is no longer maintained. The original River Trips application is no longer updated (as of 1 Dec 2016) but can be checked for errors or for the condition of the data before it was converted to the new system.

Gauge Data Table

ObservationHeightDischargeMaximum
Discharge
Minimum
Discharge
Mean
Discharge
P05P10P20P25P50
(Median)
P75P80P90P95
2022-09-25 21:00 8.63 9770 40900 (1929) 1000 (1963) 10800 3360 3810 5410 5880 9910 14100 15000 18500 24000
2022-09-25 20:00 8.55 9470 40900 (1929) 1000 (1963) 10800 3360 3810 5410 5880 9910 14100 15000 18500 24000
2022-09-25 19:00 8.45 9100 40900 (1929) 1000 (1963) 10800 3360 3810 5410 5880 9910 14100 15000 18500 24000
2022-09-25 18:00 8.34 8700 40900 (1929) 1000 (1963) 10800 3360 3810 5410 5880 9910 14100 15000 18500 24000
2022-09-25 17:00 8.24 8350 40900 (1929) 1000 (1963) 10800 3360 3810 5410 5880 9910 14100 15000 18500 24000
2022-09-25 16:00 8.17 8110 40900 (1929) 1000 (1963) 10800 3360 3810 5410 5880 9910 14100 15000 18500 24000
2022-09-25 15:00 8.13 7970 40900 (1929) 1000 (1963) 10800 3360 3810 5410 5880 9910 14100 15000 18500 24000
2022-09-25 14:00 8.08 7800 40900 (1929) 1000 (1963) 10800 3360 3810 5410 5880 9910 14100 15000 18500 24000
2022-09-25 13:00 8.01 7570 40900 (1929) 1000 (1963) 10800 3360 3810 5410 5880 9910 14100 15000 18500 24000
2022-09-25 12:00 7.90 7210 40900 (1929) 1000 (1963) 10800 3360 3810 5410 5880 9910 14100 15000 18500 24000
2022-09-25 11:00 7.77 6810 40900 (1929) 1000 (1963) 10800 3360 3810 5410 5880 9910 14100 15000 18500 24000
2022-09-25 10:00 7.70 6590 40900 (1929) 1000 (1963) 10800 3360 3810 5410 5880 9910 14100 15000 18500 24000
2022-09-25 09:00 7.74 6710 40900 (1929) 1000 (1963) 10800 3360 3810 5410 5880 9910 14100 15000 18500 24000
2022-09-25 08:00 7.83 6990 40900 (1929) 1000 (1963) 10800 3360 3810 5410 5880 9910 14100 15000 18500 24000
2022-09-25 07:00 7.95 7370 40900 (1929) 1000 (1963) 10800 3360 3810 5410 5880 9910 14100 15000 18500 24000
2022-09-25 06:00 8.12 7940 40900 (1929) 1000 (1963) 10800 3360 3810 5410 5880 9910 14100 15000 18500 24000
2022-09-25 05:00 8.33 8660 40900 (1929) 1000 (1963) 10800 3360 3810 5410 5880 9910 14100 15000 18500 24000
2022-09-25 04:00 8.55 9470 40900 (1929) 1000 (1963) 10800 3360 3810 5410 5880 9910 14100 15000 18500 24000
2022-09-25 03:00 8.71 10100 40900 (1929) 1000 (1963) 10800 3360 3810 5410 5880 9910 14100 15000 18500 24000
2022-09-25 02:00 8.79 10400 40900 (1929) 1000 (1963) 10800 3360 3810 5410 5880 9910 14100 15000 18500 24000
2022-09-25 01:00 8.82 10500 40900 (1929) 1000 (1963) 10800 3360 3810 5410 5880 9910 14100 15000 18500 24000
2022-09-25 00:00 8.81 10500 40900 (1929) 1000 (1963) 10800 3360 3810 5410 5880 9910 14100 15000 18500 24000
2022-09-24 23:00 8.82 10500 39900 (1929) 1000 (1963) 10700 2840 3700 5170 6000 10100 13500 14700 19100 22000
2022-09-24 22:00 8.82 10500 39900 (1929) 1000 (1963) 10700 2840 3700 5170 6000 10100 13500 14700 19100 22000
2022-09-24 21:00 8.82 10500 39900 (1929) 1000 (1963) 10700 2840 3700 5170 6000 10100 13500 14700 19100 22000
2022-09-24 20:00 8.81 10500 39900 (1929) 1000 (1963) 10700 2840 3700 5170 6000 10100 13500 14700 19100 22000
2022-09-24 19:00 8.78 10400 39900 (1929) 1000 (1963) 10700 2840 3700 5170 6000 10100 13500 14700 19100 22000
2022-09-24 18:00 8.78 10400 39900 (1929) 1000 (1963) 10700 2840 3700 5170 6000 10100 13500 14700 19100 22000
2022-09-24 17:00 8.74 10200 39900 (1929) 1000 (1963) 10700 2840 3700 5170 6000 10100 13500 14700 19100 22000
2022-09-24 16:00 8.68 9960 39900 (1929) 1000 (1963) 10700 2840 3700 5170 6000 10100 13500 14700 19100 22000
2022-09-24 15:00 8.60 9660 39900 (1929) 1000 (1963) 10700 2840 3700 5170 6000 10100 13500 14700 19100 22000
2022-09-24 14:00 8.49 9240 39900 (1929) 1000 (1963) 10700 2840 3700 5170 6000 10100 13500 14700 19100 22000
2022-09-24 13:00 8.36 8770 39900 (1929) 1000 (1963) 10700 2840 3700 5170 6000 10100 13500 14700 19100 22000
2022-09-24 12:00 8.17 8110 39900 (1929) 1000 (1963) 10700 2840 3700 5170 6000 10100 13500 14700 19100 22000
2022-09-24 11:00 7.93 7310 39900 (1929) 1000 (1963) 10700 2840 3700 5170 6000 10100 13500 14700 19100 22000
2022-09-24 10:00 7.77 6810 39900 (1929) 1000 (1963) 10700 2840 3700 5170 6000 10100 13500 14700 19100 22000
2022-09-24 09:00 7.79 6870 39900 (1929) 1000 (1963) 10700 2840 3700 5170 6000 10100 13500 14700 19100 22000
2022-09-24 08:00 7.87 7120 39900 (1929) 1000 (1963) 10700 2840 3700 5170 6000 10100 13500 14700 19100 22000
2022-09-24 07:00 7.99 7500 39900 (1929) 1000 (1963) 10700 2840 3700 5170 6000 10100 13500 14700 19100 22000
2022-09-24 06:00 8.14 8000 39900 (1929) 1000 (1963) 10700 2840 3700 5170 6000 10100 13500 14700 19100 22000
2022-09-24 05:00 8.33 8660 39900 (1929) 1000 (1963) 10700 2840 3700 5170 6000 10100 13500 14700 19100 22000
2022-09-24 04:00 8.54 9430 39900 (1929) 1000 (1963) 10700 2840 3700 5170 6000 10100 13500 14700 19100 22000
2022-09-24 03:00 8.70 10000 39900 (1929) 1000 (1963) 10700 2840 3700 5170 6000 10100 13500 14700 19100 22000
2022-09-24 02:00 8.78 10400 39900 (1929) 1000 (1963) 10700 2840 3700 5170 6000 10100 13500 14700 19100 22000
2022-09-24 01:00 8.80 10400 39900 (1929) 1000 (1963) 10700 2840 3700 5170 6000 10100 13500 14700 19100 22000
2022-09-24 00:00 8.80 10400 39900 (1929) 1000 (1963) 10700 2840 3700 5170 6000 10100 13500 14700 19100 22000
2022-09-23 23:00 8.80 10400 30500 (1929) 1010 (1963) 10700 2550 3770 4960 5860 10400 13800 14700 19000 23500
2022-09-23 22:00 8.80 10400 30500 (1929) 1010 (1963) 10700 2550 3770 4960 5860 10400 13800 14700 19000 23500
2022-09-23 21:00 8.79 10400 30500 (1929) 1010 (1963) 10700 2550 3770 4960 5860 10400 13800 14700 19000 23500
2022-09-23 20:00 8.79 10400 30500 (1929) 1010 (1963) 10700 2550 3770 4960 5860 10400 13800 14700 19000 23500
2022-09-23 19:00 8.78 10400 30500 (1929) 1010 (1963) 10700 2550 3770 4960 5860 10400 13800 14700 19000 23500
2022-09-23 18:00 8.77 10300 30500 (1929) 1010 (1963) 10700 2550 3770 4960 5860 10400 13800 14700 19000 23500
2022-09-23 17:00 8.76 10300 30500 (1929) 1010 (1963) 10700 2550 3770 4960 5860 10400 13800 14700 19000 23500
2022-09-23 16:00 8.72 10100 30500 (1929) 1010 (1963) 10700 2550 3770 4960 5860 10400 13800 14700 19000 23500
2022-09-23 15:00 8.67 9920 30500 (1929) 1010 (1963) 10700 2550 3770 4960 5860 10400 13800 14700 19000 23500
2022-09-23 14:00 8.56 9500 30500 (1929) 1010 (1963) 10700 2550 3770 4960 5860 10400 13800 14700 19000 23500
2022-09-23 13:00 8.44 9060 30500 (1929) 1010 (1963) 10700 2550 3770 4960 5860 10400 13800 14700 19000 23500
2022-09-23 12:00 8.30 8560 30500 (1929) 1010 (1963) 10700 2550 3770 4960 5860 10400 13800 14700 19000 23500
2022-09-23 11:00 8.09 7840 30500 (1929) 1010 (1963) 10700 2550 3770 4960 5860 10400 13800 14700 19000 23500
2022-09-23 10:00 7.89 7180 30500 (1929) 1010 (1963) 10700 2550 3770 4960 5860 10400 13800 14700 19000 23500
2022-09-23 09:00 7.80 6900 30500 (1929) 1010 (1963) 10700 2550 3770 4960 5860 10400 13800 14700 19000 23500
2022-09-23 08:00 7.82 6960 30500 (1929) 1010 (1963) 10700 2550 3770 4960 5860 10400 13800 14700 19000 23500
2022-09-23 07:00 7.92 7280 30500 (1929) 1010 (1963) 10700 2550 3770 4960 5860 10400 13800 14700 19000 23500
2022-09-23 06:00 8.10 7870 30500 (1929) 1010 (1963) 10700 2550 3770 4960 5860 10400 13800 14700 19000 23500
2022-09-23 05:00 8.32 8630 30500 (1929) 1010 (1963) 10700 2550 3770 4960 5860 10400 13800 14700 19000 23500
2022-09-23 04:00 8.55 9470 30500 (1929) 1010 (1963) 10700 2550 3770 4960 5860 10400 13800 14700 19000 23500
2022-09-23 03:00 8.74 10200 30500 (1929) 1010 (1963) 10700 2550 3770 4960 5860 10400 13800 14700 19000 23500
2022-09-23 02:00 8.83 10600 30500 (1929) 1010 (1963) 10700 2550 3770 4960 5860 10400 13800 14700 19000 23500
2022-09-23 01:00 8.86 10700 30500 (1929) 1010 (1963) 10700 2550 3770 4960 5860 10400 13800 14700 19000 23500
2022-09-23 00:00 8.86 10700 30500 (1929) 1010 (1963) 10700 2550 3770 4960 5860 10400 13800 14700 19000 23500
2022-09-22 23:00 8.85 10600 29500 (1929) 1010 (1963) 10800 2640 3770 4970 5930 10600 13000 15100 18900 26000
2022-09-22 22:00 8.85 10600 29500 (1929) 1010 (1963) 10800 2640 3770 4970 5930 10600 13000 15100 18900 26000
2022-09-22 21:00 8.82 10500 29500 (1929) 1010 (1963) 10800 2640 3770 4970 5930 10600 13000 15100 18900 26000
2022-09-22 20:00 8.78 10400 29500 (1929) 1010 (1963) 10800 2640 3770 4970 5930 10600 13000 15100 18900 26000
2022-09-22 19:00 8.72 10100 29500 (1929) 1010 (1963) 10800 2640 3770 4970 5930 10600 13000 15100 18900 26000
2022-09-22 18:00 8.66 9880 29500 (1929) 1010 (1963) 10800 2640 3770 4970 5930 10600 13000 15100 18900 26000
2022-09-22 17:00 8.65 9850 29500 (1929) 1010 (1963) 10800 2640 3770 4970 5930 10600 13000 15100 18900 26000
2022-09-22 16:00 8.64 9810 29500 (1929) 1010 (1963) 10800 2640 3770 4970 5930 10600 13000 15100 18900 26000
2022-09-22 15:00 8.62 9730 29500 (1929) 1010 (1963) 10800 2640 3770 4970 5930 10600 13000 15100 18900 26000
2022-09-22 14:00 8.57 9540 29500 (1929) 1010 (1963) 10800 2640 3770 4970 5930 10600 13000 15100 18900 26000
2022-09-22 13:00 8.44 9060 29500 (1929) 1010 (1963) 10800 2640 3770 4970 5930 10600 13000 15100 18900 26000
2022-09-22 12:00 8.23 8310 29500 (1929) 1010 (1963) 10800 2640 3770 4970 5930 10600 13000 15100 18900 26000
2022-09-22 11:00 7.98 7470 29500 (1929) 1010 (1963) 10800 2640 3770 4970 5930 10600 13000 15100 18900 26000
2022-09-22 10:00 7.79 6870 29500 (1929) 1010 (1963) 10800 2640 3770 4970 5930 10600 13000 15100 18900 26000
2022-09-22 09:00 7.76 6780 29500 (1929) 1010 (1963) 10800 2640 3770 4970 5930 10600 13000 15100 18900 26000
2022-09-22 08:00 7.80 6900 29500 (1929) 1010 (1963) 10800 2640 3770 4970 5930 10600 13000 15100 18900 26000
2022-09-22 07:00 7.91 7250 29500 (1929) 1010 (1963) 10800 2640 3770 4970 5930 10600 13000 15100 18900 26000
2022-09-22 06:00 8.08 7800 29500 (1929) 1010 (1963) 10800 2640 3770 4970 5930 10600 13000 15100 18900 26000
2022-09-22 05:00 8.28 8490 29500 (1929) 1010 (1963) 10800 2640 3770 4970 5930 10600 13000 15100 18900 26000
2022-09-22 04:00 8.52 9350 29500 (1929) 1010 (1963) 10800 2640 3770 4970 5930 10600 13000 15100 18900 26000
2022-09-22 03:00 8.73 10200 29500 (1929) 1010 (1963) 10800 2640 3770 4970 5930 10600 13000 15100 18900 26000
2022-09-22 02:00 8.83 10600 29500 (1929) 1010 (1963) 10800 2640 3770 4970 5930 10600 13000 15100 18900 26000
2022-09-22 01:00 8.86 10700 29500 (1929) 1010 (1963) 10800 2640 3770 4970 5930 10600 13000 15100 18900 26000
2022-09-22 00:00 8.85 10600 29500 (1929) 1010 (1963) 10800 2640 3770 4970 5930 10600 13000 15100 18900 26000
2022-09-21 23:00 8.84 10600 31600 (1927) 1010 (1963) 10800 2580 3620 5020 6360 9700 13700 14800 18900 25000
2022-09-21 22:00 8.83 10600 31600 (1927) 1010 (1963) 10800 2580 3620 5020 6360 9700 13700 14800 18900 25000
2022-09-21 21:00 8.81 10500 31600 (1927) 1010 (1963) 10800 2580 3620 5020 6360 9700 13700 14800 18900 25000
2022-09-21 20:00 8.77 10300 31600 (1927) 1010 (1963) 10800 2580 3620 5020 6360 9700 13700 14800 18900 25000
2022-09-21 19:00 8.71 10100 31600 (1927) 1010 (1963) 10800 2580 3620 5020 6360 9700 13700 14800 18900 25000
2022-09-21 18:00 8.66 9880 31600 (1927) 1010 (1963) 10800 2580 3620 5020 6360 9700 13700 14800 18900 25000
2022-09-21 17:00 8.64 9810 31600 (1927) 1010 (1963) 10800 2580 3620 5020 6360 9700 13700 14800 18900 25000
2022-09-21 16:00 8.66 9880 31600 (1927) 1010 (1963) 10800 2580 3620 5020 6360 9700 13700 14800 18900 25000
2022-09-21 15:00 8.67 9920 31600 (1927) 1010 (1963) 10800 2580 3620 5020 6360 9700 13700 14800 18900 25000
2022-09-21 14:00 8.64 9810 31600 (1927) 1010 (1963) 10800 2580 3620 5020 6360 9700 13700 14800 18900 25000
2022-09-21 13:00 8.56 9500 31600 (1927) 1010 (1963) 10800 2580 3620 5020 6360 9700 13700 14800 18900 25000
2022-09-21 12:00 8.36 8770 31600 (1927) 1010 (1963) 10800 2580 3620 5020 6360 9700 13700 14800 18900 25000
2022-09-21 11:00 8.10 7870 31600 (1927) 1010 (1963) 10800 2580 3620 5020 6360 9700 13700 14800 18900 25000
2022-09-21 10:00 7.89 7180 31600 (1927) 1010 (1963) 10800 2580 3620 5020 6360 9700 13700 14800 18900 25000
2022-09-21 09:00 7.84 7020 31600 (1927) 1010 (1963) 10800 2580 3620 5020 6360 9700 13700 14800 18900 25000
2022-09-21 08:00 7.88 7150 31600 (1927) 1010 (1963) 10800 2580 3620 5020 6360 9700 13700 14800 18900 25000
2022-09-21 07:00 7.96 7410 31600 (1927) 1010 (1963) 10800 2580 3620 5020 6360 9700 13700 14800 18900 25000
2022-09-21 06:00 8.08 7800 31600 (1927) 1010 (1963) 10800 2580 3620 5020 6360 9700 13700 14800 18900 25000
2022-09-21 05:00 8.28 8490 31600 (1927) 1010 (1963) 10800 2580 3620 5020 6360 9700 13700 14800 18900 25000
2022-09-21 04:00 8.52 9350 31600 (1927) 1010 (1963) 10800 2580 3620 5020 6360 9700 13700 14800 18900 25000
2022-09-21 03:00 8.73 10200 31600 (1927) 1010 (1963) 10800 2580 3620 5020 6360 9700 13700 14800 18900 25000
2022-09-21 02:00 8.83 10600 31600 (1927) 1010 (1963) 10800 2580 3620 5020 6360 9700 13700 14800 18900 25000
2022-09-21 01:00 8.84 10600 31600 (1927) 1010 (1963) 10800 2580 3620 5020 6360 9700 13700 14800 18900 25000
2022-09-21 00:00 8.83 10600 31600 (1927) 1010 (1963) 10800 2580 3620 5020 6360 9700 13700 14800 18900 25000
2022-09-20 23:00 8.84 10600 47800 (1923) 1010 (1963) 10900 2620 3640 4920 5580 9910 13600 14800 19100 23900
2022-09-20 22:00 8.82 10500 47800 (1923) 1010 (1963) 10900 2620 3640 4920 5580 9910 13600 14800 19100 23900
2022-09-20 21:00 8.84 10600 47800 (1923) 1010 (1963) 10900 2620 3640 4920 5580 9910 13600 14800 19100 23900
2022-09-20 20:00 8.84 10600 47800 (1923) 1010 (1963) 10900 2620 3640 4920 5580 9910 13600 14800 19100 23900
2022-09-20 19:00 8.83 10600 47800 (1923) 1010 (1963) 10900 2620 3640 4920 5580 9910 13600 14800 19100 23900
2022-09-20 18:00 8.82 10500 47800 (1923) 1010 (1963) 10900 2620 3640 4920 5580 9910 13600 14800 19100 23900
2022-09-20 17:00 8.82 10500 47800 (1923) 1010 (1963) 10900 2620 3640 4920 5580 9910 13600 14800 19100 23900
2022-09-20 16:00 8.77 10300 47800 (1923) 1010 (1963) 10900 2620 3640 4920 5580 9910 13600 14800 19100 23900
2022-09-20 15:00 8.69 10000 47800 (1923) 1010 (1963) 10900 2620 3640 4920 5580 9910 13600 14800 19100 23900
2022-09-20 14:00 8.55 9470 47800 (1923) 1010 (1963) 10900 2620 3640 4920 5580 9910 13600 14800 19100 23900
2022-09-20 13:00 8.36 8770 47800 (1923) 1010 (1963) 10900 2620 3640 4920 5580 9910 13600 14800 19100 23900
2022-09-20 12:00 8.09 7840 47800 (1923) 1010 (1963) 10900 2620 3640 4920 5580 9910 13600 14800 19100 23900
2022-09-20 11:00 7.86 7090 47800 (1923) 1010 (1963) 10900 2620 3640 4920 5580 9910 13600 14800 19100 23900
2022-09-20 10:00 7.74 6710 47800 (1923) 1010 (1963) 10900 2620 3640 4920 5580 9910 13600 14800 19100 23900
2022-09-20 09:00 7.72 6650 47800 (1923) 1010 (1963) 10900 2620 3640 4920 5580 9910 13600 14800 19100 23900
2022-09-20 08:00 7.78 6840 47800 (1923) 1010 (1963) 10900 2620 3640 4920 5580 9910 13600 14800 19100 23900
2022-09-20 07:00 7.86 7090 47800 (1923) 1010 (1963) 10900 2620 3640 4920 5580 9910 13600 14800 19100 23900
2022-09-20 06:00 7.99 7500 47800 (1923) 1010 (1963) 10900 2620 3640 4920 5580 9910 13600 14800 19100 23900
2022-09-20 05:00 8.18 8140 47800 (1923) 1010 (1963) 10900 2620 3640 4920 5580 9910 13600 14800 19100 23900
2022-09-20 04:00 8.39 8880 47800 (1923) 1010 (1963) 10900 2620 3640 4920 5580 9910 13600 14800 19100 23900
2022-09-20 03:00 8.63 9770 47800 (1923) 1010 (1963) 10900 2620 3640 4920 5580 9910 13600 14800 19100 23900
2022-09-20 02:00 8.80 10400 47800 (1923) 1010 (1963) 10900 2620 3640 4920 5580 9910 13600 14800 19100 23900
2022-09-20 01:00 8.86 10700 47800 (1923) 1010 (1963) 10900 2620 3640 4920 5580 9910 13600 14800 19100 23900
2022-09-20 00:00 8.87 10700 47800 (1923) 1010 (1963) 10900 2620 3640 4920 5580 9910 13600 14800 19100 23900
2022-09-19 23:00 8.83 10600 33300 (1927) 1010 (1963) 10300 2620 3510 4900 5720 9590 13000 14700 18000 22900
2022-09-19 22:00 8.77 10300 33300 (1927) 1010 (1963) 10300 2620 3510 4900 5720 9590 13000 14700 18000 22900
2022-09-19 21:00 8.68 9960 33300 (1927) 1010 (1963) 10300 2620 3510 4900 5720 9590 13000 14700 18000 22900
2022-09-19 20:00 8.59 9620 33300 (1927) 1010 (1963) 10300 2620 3510 4900 5720 9590 13000 14700 18000 22900
2022-09-19 19:00 8.57 9540 33300 (1927) 1010 (1963) 10300 2620 3510 4900 5720 9590 13000 14700 18000 22900
2022-09-19 18:00 8.57 9540 33300 (1927) 1010 (1963) 10300 2620 3510 4900 5720 9590 13000 14700 18000 22900
2022-09-19 17:00 8.57 9540 33300 (1927) 1010 (1963) 10300 2620 3510 4900 5720 9590 13000 14700 18000 22900
2022-09-19 16:00 8.57 9540 33300 (1927) 1010 (1963) 10300 2620 3510 4900 5720 9590 13000 14700 18000 22900
2022-09-19 15:00 8.57 9540 33300 (1927) 1010 (1963) 10300 2620 3510 4900 5720 9590 13000 14700 18000 22900
2022-09-19 14:00 8.57 9540 33300 (1927) 1010 (1963) 10300 2620 3510 4900 5720 9590 13000 14700 18000 22900
2022-09-19 13:00 8.57 9540 33300 (1927) 1010 (1963) 10300 2620 3510 4900 5720 9590 13000 14700 18000 22900
2022-09-19 12:00 8.57 9540 33300 (1927) 1010 (1963) 10300 2620 3510 4900 5720 9590 13000 14700 18000 22900
2022-09-19 11:00 8.58 9580 33300 (1927) 1010 (1963) 10300 2620 3510 4900 5720 9590 13000 14700 18000 22900
2022-09-19 10:00 8.57 9540 33300 (1927) 1010 (1963) 10300 2620 3510 4900 5720 9590 13000 14700 18000 22900
2022-09-19 09:00 8.57 9540 33300 (1927) 1010 (1963) 10300 2620 3510 4900 5720 9590 13000 14700 18000 22900
2022-09-19 08:00 8.57 9540 33300 (1927) 1010 (1963) 10300 2620 3510 4900 5720 9590 13000 14700 18000 22900
2022-09-19 07:00 8.57 9540 33300 (1927) 1010 (1963) 10300 2620 3510 4900 5720 9590 13000 14700 18000 22900
2022-09-19 06:00 8.57 9540 33300 (1927) 1010 (1963) 10300 2620 3510 4900 5720 9590 13000 14700 18000 22900
2022-09-19 05:00 8.57 9540 33300 (1927) 1010 (1963) 10300 2620 3510 4900 5720 9590 13000 14700 18000 22900
2022-09-19 04:00 8.56 9500 33300 (1927) 1010 (1963) 10300 2620 3510 4900 5720 9590 13000 14700 18000 22900
2022-09-19 03:00 8.56 9500 33300 (1927) 1010 (1963) 10300 2620 3510 4900 5720 9590 13000 14700 18000 22900
2022-09-19 02:00 8.57 9540 33300 (1927) 1010 (1963) 10300 2620 3510 4900 5720 9590 13000 14700 18000 22900
2022-09-19 01:00 8.56 9500 33300 (1927) 1010 (1963) 10300 2620 3510 4900 5720 9590 13000 14700 18000 22900
2022-09-19 00:00 8.56 9500 33300 (1927) 1010 (1963) 10300 2620 3510 4900 5720 9590 13000 14700 18000 22900
2022-09-18 23:00 8.57 9540 45300 (1927) 1010 (1963) 10600 2650 3550 5000 5780 9720 12500 14800 18400 21800
2022-09-18 22:00 8.56 9500 45300 (1927) 1010 (1963) 10600 2650 3550 5000 5780 9720 12500 14800 18400 21800
2022-09-18 21:00 8.56 9500 45300 (1927) 1010 (1963) 10600 2650 3550 5000 5780 9720 12500 14800 18400 21800
2022-09-18 20:00 8.56 9500 45300 (1927) 1010 (1963) 10600 2650 3550 5000 5780 9720 12500 14800 18400 21800
2022-09-18 19:00 8.57 9540 45300 (1927) 1010 (1963) 10600 2650 3550 5000 5780 9720 12500 14800 18400 21800
2022-09-18 18:00 8.56 9500 45300 (1927) 1010 (1963) 10600 2650 3550 5000 5780 9720 12500 14800 18400 21800
2022-09-18 17:00 8.56 9500 45300 (1927) 1010 (1963) 10600 2650 3550 5000 5780 9720 12500 14800 18400 21800
2022-09-18 16:00 8.58 9580 45300 (1927) 1010 (1963) 10600 2650 3550 5000 5780 9720 12500 14800 18400 21800
2022-09-18 15:00 8.57 9540 45300 (1927) 1010 (1963) 10600 2650 3550 5000 5780 9720 12500 14800 18400 21800
2022-09-18 14:00 8.57 9540 45300 (1927) 1010 (1963) 10600 2650 3550 5000 5780 9720 12500 14800 18400 21800
2022-09-18 13:00 8.57 9540 45300 (1927) 1010 (1963) 10600 2650 3550 5000 5780 9720 12500 14800 18400 21800
2022-09-18 12:00 8.57 9540 45300 (1927) 1010 (1963) 10600 2650 3550 5000 5780 9720 12500 14800 18400 21800
2022-09-18 11:00 8.56 9500 45300 (1927) 1010 (1963) 10600 2650 3550 5000 5780 9720 12500 14800 18400 21800
2022-09-18 10:00 8.57 9540 45300 (1927) 1010 (1963) 10600 2650 3550 5000 5780 9720 12500 14800 18400 21800
2022-09-18 09:00 8.57 9540 45300 (1927) 1010 (1963) 10600 2650 3550 5000 5780 9720 12500 14800 18400 21800
2022-09-18 08:00 8.57 9540 45300 (1927) 1010 (1963) 10600 2650 3550 5000 5780 9720 12500 14800 18400 21800
2022-09-18 07:00 8.57 9540 45300 (1927) 1010 (1963) 10600 2650 3550 5000 5780 9720 12500 14800 18400 21800
2022-09-18 06:00 8.56 9500 45300 (1927) 1010 (1963) 10600 2650 3550 5000 5780 9720 12500 14800 18400 21800
2022-09-18 05:00 8.55 9470 45300 (1927) 1010 (1963) 10600 2650 3550 5000 5780 9720 12500 14800 18400 21800
2022-09-18 04:00 8.54 9430 45300 (1927) 1010 (1963) 10600 2650 3550 5000 5780 9720 12500 14800 18400 21800
2022-09-18 03:00 8.54 9430 45300 (1927) 1010 (1963) 10600 2650 3550 5000 5780 9720 12500 14800 18400 21800
2022-09-18 02:00 8.53 9390 45300 (1927) 1010 (1963) 10600 2650 3550 5000 5780 9720 12500 14800 18400 21800
2022-09-18 01:00 8.51 9320 45300 (1927) 1010 (1963) 10600 2650 3550 5000 5780 9720 12500 14800 18400 21800
2022-09-18 00:00 8.51 9320 45300 (1927) 1010 (1963) 10600 2650 3550 5000 5780 9720 12500 14800 18400 21800

A total of 190 rows are displayed for years 1922 through 2020.